sensor_id;sensor_type;location;lat;lon;timestamp;P1;durP1;ratioP1;P2;durP2;ratioP2
13415;SDS011;6779;50.150;8.680;2023-08-30T00:00:46;5.10;;;4.43;;
13415;SDS011;6779;50.150;8.680;2023-08-30T00:03:11;5.20;;;4.30;;
13415;SDS011;6779;50.150;8.680;2023-08-30T00:05:40;6.77;;;4.57;;
13415;SDS011;6779;50.150;8.680;2023-08-30T00:08:06;7.30;;;4.47;;
13415;SDS011;6779;50.150;8.680;2023-08-30T00:10:31;5.00;;;4.20;;
13415;SDS011;6779;50.150;8.680;2023-08-30T00:12:57;5.03;;;4.50;;
13415;SDS011;6779;50.150;8.680;2023-08-30T00:15:22;4.73;;;4.23;;
13415;SDS011;6779;50.150;8.680;2023-08-30T00:17:47;5.20;;;4.30;;
13415;SDS011;6779;50.150;8.680;2023-08-30T00:20:13;6.43;;;4.80;;
13415;SDS011;6779;50.150;8.680;2023-08-30T00:22:38;5.97;;;4.33;;
13415;SDS011;6779;50.150;8.680;2023-08-30T00:25:04;4.80;;;4.30;;
13415;SDS011;6779;50.150;8.680;2023-08-30T00:27:30;5.67;;;4.67;;
13415;SDS011;6779;50.150;8.680;2023-08-30T00:29:55;4.17;;;3.77;;
13415;SDS011;6779;50.150;8.680;2023-08-30T00:32:20;5.10;;;3.97;;
13415;SDS011;6779;50.150;8.680;2023-08-30T00:34:49;3.80;;;3.37;;
13415;SDS011;6779;50.150;8.680;2023-08-30T00:37:15;4.97;;;3.70;;
13415;SDS011;6779;50.150;8.680;2023-08-30T00:39:40;4.33;;;3.93;;
13415;SDS011;6779;50.150;8.680;2023-08-30T00:42:05;5.13;;;4.07;;
13415;SDS011;6779;50.150;8.680;2023-08-30T00:44:32;4.47;;;3.93;;
13415;SDS011;6779;50.150;8.680;2023-08-30T00:46:58;3.87;;;3.47;;
13415;SDS011;6779;50.150;8.680;2023-08-30T00:49:24;4.13;;;3.70;;
13415;SDS011;6779;50.150;8.680;2023-08-30T00:51:49;4.53;;;4.13;;
13415;SDS011;6779;50.150;8.680;2023-08-30T00:54:15;4.20;;;3.80;;
13415;SDS011;6779;50.150;8.680;2023-08-30T00:56:41;4.27;;;3.70;;
13415;SDS011;6779;50.150;8.680;2023-08-30T00:59:06;4.90;;;3.80;;
13415;SDS011;6779;50.150;8.680;2023-08-30T01:01:31;5.43;;;4.27;;
13415;SDS011;6779;50.150;8.680;2023-08-30T01:03:57;6.37;;;4.43;;
13415;SDS011;6779;50.150;8.680;2023-08-30T01:06:23;7.90;;;5.00;;
13415;SDS011;6779;50.150;8.680;2023-08-30T01:08:48;5.60;;;4.93;;
13415;SDS011;6779;50.150;8.680;2023-08-30T01:11:26;8.17;;;5.43;;
13415;SDS011;6779;50.150;8.680;2023-08-30T01:14:01;7.20;;;5.87;;
13415;SDS011;6779;50.150;8.680;2023-08-30T01:16:30;5.67;;;5.17;;
13415;SDS011;6779;50.150;8.680;2023-08-30T01:18:56;8.63;;;5.80;;
13415;SDS011;6779;50.150;8.680;2023-08-30T01:21:41;7.10;;;5.43;;
13415;SDS011;6779;50.150;8.680;2023-08-30T01:24:18;8.93;;;5.60;;
13415;SDS011;6779;50.150;8.680;2023-08-30T01:27:07;6.57;;;5.77;;
13415;SDS011;6779;50.150;8.680;2023-08-30T01:29:34;7.20;;;6.13;;
13415;SDS011;6779;50.150;8.680;2023-08-30T01:32:01;7.40;;;6.03;;
13415;SDS011;6779;50.150;8.680;2023-08-30T01:34:27;7.57;;;6.20;;
13415;SDS011;6779;50.150;8.680;2023-08-30T01:36:53;7.67;;;5.97;;
13415;SDS011;6779;50.150;8.680;2023-08-30T01:39:18;8.40;;;6.70;;
13415;SDS011;6779;50.150;8.680;2023-08-30T01:41:44;6.77;;;6.00;;
13415;SDS011;6779;50.150;8.680;2023-08-30T01:44:10;8.77;;;7.10;;
13415;SDS011;6779;50.150;8.680;2023-08-30T01:46:36;6.90;;;6.27;;
13415;SDS011;6779;50.150;8.680;2023-08-30T01:49:02;7.83;;;6.70;;
13415;SDS011;6779;50.150;8.680;2023-08-30T01:51:28;7.67;;;6.60;;
13415;SDS011;6779;50.150;8.680;2023-08-30T01:53:54;6.90;;;6.20;;
13415;SDS011;6779;50.150;8.680;2023-08-30T01:56:19;8.03;;;7.27;;
13415;SDS011;6779;50.150;8.680;2023-08-30T01:58:45;6.03;;;5.43;;
13415;SDS011;6779;50.150;8.680;2023-08-30T02:01:10;7.10;;;5.43;;
13415;SDS011;6779;50.150;8.680;2023-08-30T02:03:35;5.43;;;4.93;;
13415;SDS011;6779;50.150;8.680;2023-08-30T02:06:07;5.80;;;5.27;;
13415;SDS011;6779;50.150;8.680;2023-08-30T02:08:38;5.37;;;4.87;;
13415;SDS011;6779;50.150;8.680;2023-08-30T02:11:12;5.70;;;4.77;;
13415;SDS011;6779;50.150;8.680;2023-08-30T02:13:40;5.73;;;5.10;;
13415;SDS011;6779;50.150;8.680;2023-08-30T02:16:06;6.10;;;4.23;;
13415;SDS011;6779;50.150;8.680;2023-08-30T02:18:32;5.40;;;4.53;;
13415;SDS011;6779;50.150;8.680;2023-08-30T02:20:58;6.37;;;4.37;;
13415;SDS011;6779;50.150;8.680;2023-08-30T02:23:24;10.17;;;4.90;;
13415;SDS011;6779;50.150;8.680;2023-08-30T02:25:53;7.80;;;6.27;;
13415;SDS011;6779;50.150;8.680;2023-08-30T02:28:19;6.30;;;5.70;;
13415;SDS011;6779;50.150;8.680;2023-08-30T02:30:44;7.20;;;5.93;;
13415;SDS011;6779;50.150;8.680;2023-08-30T02:33:09;8.03;;;6.20;;
13415;SDS011;6779;50.150;8.680;2023-08-30T02:35:35;6.10;;;5.60;;
13415;SDS011;6779;50.150;8.680;2023-08-30T02:38:00;6.93;;;5.17;;
13415;SDS011;6779;50.150;8.680;2023-08-30T02:40:29;7.00;;;4.90;;
13415;SDS011;6779;50.150;8.680;2023-08-30T02:42:55;6.03;;;5.00;;
13415;SDS011;6779;50.150;8.680;2023-08-30T02:45:20;7.50;;;4.73;;
13415;SDS011;6779;50.150;8.680;2023-08-30T02:47:45;5.27;;;4.77;;
13415;SDS011;6779;50.150;8.680;2023-08-30T02:50:11;6.50;;;4.67;;
13415;SDS011;6779;50.150;8.680;2023-08-30T02:52:36;5.03;;;4.53;;
13415;SDS011;6779;50.150;8.680;2023-08-30T02:55:01;5.80;;;4.40;;
13415;SDS011;6779;50.150;8.680;2023-08-30T02:57:27;6.87;;;5.00;;
13415;SDS011;6779;50.150;8.680;2023-08-30T02:59:52;5.23;;;4.73;;
13415;SDS011;6779;50.150;8.680;2023-08-30T03:02:17;9.33;;;4.70;;
13415;SDS011;6779;50.150;8.680;2023-08-30T03:04:42;7.37;;;4.70;;
13415;SDS011;6779;50.150;8.680;2023-08-30T03:07:08;4.80;;;3.83;;
13415;SDS011;6779;50.150;8.680;2023-08-30T03:09:33;4.60;;;4.20;;
13415;SDS011;6779;50.150;8.680;2023-08-30T03:11:58;6.80;;;4.90;;
13415;SDS011;6779;50.150;8.680;2023-08-30T03:14:24;5.17;;;4.43;;
13415;SDS011;6779;50.150;8.680;2023-08-30T03:16:49;6.40;;;5.10;;
13415;SDS011;6779;50.150;8.680;2023-08-30T03:19:14;5.43;;;4.90;;
13415;SDS011;6779;50.150;8.680;2023-08-30T03:21:42;4.90;;;4.40;;
13415;SDS011;6779;50.150;8.680;2023-08-30T03:24:07;6.30;;;4.43;;
13415;SDS011;6779;50.150;8.680;2023-08-30T03:26:32;5.80;;;4.97;;
13415;SDS011;6779;50.150;8.680;2023-08-30T03:28:58;5.20;;;4.50;;
13415;SDS011;6779;50.150;8.680;2023-08-30T03:31:23;5.50;;;4.80;;
13415;SDS011;6779;50.150;8.680;2023-08-30T03:33:49;6.40;;;5.27;;
13415;SDS011;6779;50.150;8.680;2023-08-30T03:36:15;7.10;;;4.90;;
13415;SDS011;6779;50.150;8.680;2023-08-30T03:38:42;9.07;;;5.77;;
13415;SDS011;6779;50.150;8.680;2023-08-30T03:41:08;6.87;;;5.40;;
13415;SDS011;6779;50.150;8.680;2023-08-30T03:43:34;5.30;;;4.80;;
13415;SDS011;6779;50.150;8.680;2023-08-30T03:45:59;8.07;;;5.33;;
13415;SDS011;6779;50.150;8.680;2023-08-30T03:48:25;6.33;;;4.70;;
13415;SDS011;6779;50.150;8.680;2023-08-30T03:50:51;5.80;;;4.70;;
13415;SDS011;6779;50.150;8.680;2023-08-30T03:53:16;6.67;;;4.93;;
13415;SDS011;6779;50.150;8.680;2023-08-30T03:55:42;7.37;;;5.47;;
13415;SDS011;6779;50.150;8.680;2023-08-30T03:58:07;5.87;;;4.80;;
13415;SDS011;6779;50.150;8.680;2023-08-30T04:00:35;6.70;;;4.77;;
13415;SDS011;6779;50.150;8.680;2023-08-30T04:03:01;5.67;;;4.60;;
13415;SDS011;6779;50.150;8.680;2023-08-30T04:05:26;5.00;;;4.20;;
13415;SDS011;6779;50.150;8.680;2023-08-30T04:07:52;5.17;;;4.67;;
13415;SDS011;6779;50.150;8.680;2023-08-30T04:10:17;6.30;;;4.40;;
13415;SDS011;6779;50.150;8.680;2023-08-30T04:12:42;6.00;;;4.70;;
13415;SDS011;6779;50.150;8.680;2023-08-30T04:15:07;7.63;;;5.47;;
13415;SDS011;6779;50.150;8.680;2023-08-30T04:17:33;6.53;;;5.03;;
13415;SDS011;6779;50.150;8.680;2023-08-30T04:19:59;6.70;;;5.37;;
13415;SDS011;6779;50.150;8.680;2023-08-30T04:22:24;6.30;;;5.23;;
13415;SDS011;6779;50.150;8.680;2023-08-30T04:24:49;5.33;;;4.83;;
13415;SDS011;6779;50.150;8.680;2023-08-30T04:27:14;6.37;;;5.13;;
13415;SDS011;6779;50.150;8.680;2023-08-30T04:29:40;5.10;;;4.57;;
13415;SDS011;6779;50.150;8.680;2023-08-30T04:32:09;6.13;;;5.53;;
13415;SDS011;6779;50.150;8.680;2023-08-30T04:34:35;6.07;;;5.43;;
13415;SDS011;6779;50.150;8.680;2023-08-30T04:37:00;6.03;;;5.43;;
13415;SDS011;6779;50.150;8.680;2023-08-30T04:39:25;6.40;;;5.20;;
13415;SDS011;6779;50.150;8.680;2023-08-30T04:41:50;8.73;;;5.30;;
13415;SDS011;6779;50.150;8.680;2023-08-30T04:44:17;6.47;;;5.23;;
13415;SDS011;6779;50.150;8.680;2023-08-30T04:46:44;7.23;;;5.53;;
13415;SDS011;6779;50.150;8.680;2023-08-30T04:49:09;6.93;;;6.20;;
13415;SDS011;6779;50.150;8.680;2023-08-30T04:51:34;7.30;;;5.30;;
13415;SDS011;6779;50.150;8.680;2023-08-30T04:54:00;6.60;;;5.10;;
13415;SDS011;6779;50.150;8.680;2023-08-30T04:56:25;8.83;;;6.00;;
13415;SDS011;6779;50.150;8.680;2023-08-30T04:58:50;9.00;;;5.50;;
13415;SDS011;6779;50.150;8.680;2023-08-30T05:01:16;7.87;;;5.70;;
13415;SDS011;6779;50.150;8.680;2023-08-30T05:03:41;9.70;;;6.47;;
13415;SDS011;6779;50.150;8.680;2023-08-30T05:06:07;9.13;;;6.60;;
13415;SDS011;6779;50.150;8.680;2023-08-30T05:08:32;9.07;;;6.13;;
13415;SDS011;6779;50.150;8.680;2023-08-30T05:10:58;9.53;;;6.33;;
13415;SDS011;6779;50.150;8.680;2023-08-30T05:13:23;7.30;;;6.47;;
13415;SDS011;6779;50.150;8.680;2023-08-30T05:15:48;6.97;;;6.27;;
13415;SDS011;6779;50.150;8.680;2023-08-30T05:18:14;8.20;;;7.40;;
13415;SDS011;6779;50.150;8.680;2023-08-30T05:20:39;7.17;;;6.43;;
13415;SDS011;6779;50.150;8.680;2023-08-30T05:23:04;8.00;;;6.40;;
13415;SDS011;6779;50.150;8.680;2023-08-30T05:25:29;7.83;;;6.50;;
13415;SDS011;6779;50.150;8.680;2023-08-30T05:27:55;6.87;;;5.80;;
13415;SDS011;6779;50.150;8.680;2023-08-30T05:30:20;7.30;;;6.57;;
13415;SDS011;6779;50.150;8.680;2023-08-30T05:32:45;8.40;;;6.00;;
13415;SDS011;6779;50.150;8.680;2023-08-30T05:35:11;9.23;;;5.97;;
13415;SDS011;6779;50.150;8.680;2023-08-30T05:37:36;11.03;;;7.23;;
13415;SDS011;6779;50.150;8.680;2023-08-30T05:40:01;8.93;;;6.30;;
13415;SDS011;6779;50.150;8.680;2023-08-30T05:42:28;10.00;;;6.97;;
13415;SDS011;6779;50.150;8.680;2023-08-30T05:44:53;7.30;;;6.57;;
13415;SDS011;6779;50.150;8.680;2023-08-30T05:47:20;8.37;;;6.87;;
13415;SDS011;6779;50.150;8.680;2023-08-30T05:49:45;7.97;;;6.80;;
13415;SDS011;6779;50.150;8.680;2023-08-30T05:52:11;8.87;;;7.00;;
13415;SDS011;6779;50.150;8.680;2023-08-30T05:54:36;9.47;;;7.27;;
13415;SDS011;6779;50.150;8.680;2023-08-30T05:57:01;6.87;;;6.17;;
13415;SDS011;6779;50.150;8.680;2023-08-30T05:59:26;8.37;;;6.40;;
13415;SDS011;6779;50.150;8.680;2023-08-30T06:01:52;7.87;;;5.50;;
13415;SDS011;6779;50.150;8.680;2023-08-30T06:04:18;7.33;;;6.40;;
13415;SDS011;6779;50.150;8.680;2023-08-30T06:06:43;8.13;;;6.40;;
13415;SDS011;6779;50.150;8.680;2023-08-30T06:09:08;7.77;;;6.30;;
13415;SDS011;6779;50.150;8.680;2023-08-30T06:11:34;8.43;;;7.40;;
13415;SDS011;6779;50.150;8.680;2023-08-30T06:13:59;11.47;;;7.00;;
13415;SDS011;6779;50.150;8.680;2023-08-30T06:16:25;9.17;;;7.73;;
13415;SDS011;6779;50.150;8.680;2023-08-30T06:18:50;8.10;;;7.23;;
13415;SDS011;6779;50.150;8.680;2023-08-30T06:21:15;15.07;;;7.63;;
13415;SDS011;6779;50.150;8.680;2023-08-30T06:23:41;11.40;;;7.67;;
13415;SDS011;6779;50.150;8.680;2023-08-30T06:26:07;11.10;;;8.30;;
13415;SDS011;6779;50.150;8.680;2023-08-30T06:28:32;10.30;;;7.27;;
13415;SDS011;6779;50.150;8.680;2023-08-30T06:30:57;10.77;;;7.60;;
13415;SDS011;6779;50.150;8.680;2023-08-30T06:33:23;10.67;;;7.30;;
13415;SDS011;6779;50.150;8.680;2023-08-30T06:35:48;10.40;;;8.47;;
13415;SDS011;6779;50.150;8.680;2023-08-30T06:38:15;9.53;;;8.47;;
13415;SDS011;6779;50.150;8.680;2023-08-30T06:40:44;9.90;;;9.00;;
13415;SDS011;6779;50.150;8.680;2023-08-30T06:43:10;13.20;;;8.40;;
13415;SDS011;6779;50.150;8.680;2023-08-30T06:45:35;8.73;;;7.80;;
13415;SDS011;6779;50.150;8.680;2023-08-30T06:48:03;10.43;;;8.33;;
13415;SDS011;6779;50.150;8.680;2023-08-30T06:50:28;11.93;;;9.03;;
13415;SDS011;6779;50.150;8.680;2023-08-30T06:52:53;11.80;;;9.30;;
13415;SDS011;6779;50.150;8.680;2023-08-30T06:55:19;11.13;;;9.13;;
13415;SDS011;6779;50.150;8.680;2023-08-30T06:57:48;13.67;;;11.10;;
13415;SDS011;6779;50.150;8.680;2023-08-30T07:00:14;11.87;;;10.73;;
13415;SDS011;6779;50.150;8.680;2023-08-30T07:02:40;15.90;;;12.53;;
13415;SDS011;6779;50.150;8.680;2023-08-30T07:05:09;14.40;;;12.77;;
13415;SDS011;6779;50.150;8.680;2023-08-30T07:07:35;14.10;;;12.60;;
13415;SDS011;6779;50.150;8.680;2023-08-30T07:10:00;14.80;;;13.30;;
13415;SDS011;6779;50.150;8.680;2023-08-30T07:12:25;14.80;;;13.20;;
13415;SDS011;6779;50.150;8.680;2023-08-30T07:14:51;14.80;;;13.03;;
13415;SDS011;6779;50.150;8.680;2023-08-30T07:17:16;15.30;;;13.60;;
13415;SDS011;6779;50.150;8.680;2023-08-30T07:19:41;15.73;;;14.03;;
13415;SDS011;6779;50.150;8.680;2023-08-30T07:22:07;15.63;;;14.03;;
13415;SDS011;6779;50.150;8.680;2023-08-30T07:24:32;15.23;;;13.67;;
13415;SDS011;6779;50.150;8.680;2023-08-30T07:26:57;15.53;;;13.73;;
13415;SDS011;6779;50.150;8.680;2023-08-30T07:29:22;16.97;;;14.90;;
13415;SDS011;6779;50.150;8.680;2023-08-30T07:31:48;17.33;;;14.80;;
13415;SDS011;6779;50.150;8.680;2023-08-30T07:34:16;18.40;;;16.53;;
13415;SDS011;6779;50.150;8.680;2023-08-30T07:36:41;20.00;;;17.90;;
13415;SDS011;6779;50.150;8.680;2023-08-30T07:39:07;19.90;;;17.20;;
13415;SDS011;6779;50.150;8.680;2023-08-30T07:41:33;19.97;;;17.77;;
13415;SDS011;6779;50.150;8.680;2023-08-30T07:43:59;20.57;;;18.17;;
13415;SDS011;6779;50.150;8.680;2023-08-30T07:46:24;20.20;;;18.20;;
13415;SDS011;6779;50.150;8.680;2023-08-30T07:48:50;21.07;;;18.87;;
13415;SDS011;6779;50.150;8.680;2023-08-30T07:51:16;21.03;;;18.33;;
13415;SDS011;6779;50.150;8.680;2023-08-30T07:53:41;21.60;;;19.40;;
13415;SDS011;6779;50.150;8.680;2023-08-30T07:56:06;19.40;;;17.40;;
13415;SDS011;6779;50.150;8.680;2023-08-30T07:58:32;19.97;;;17.93;;
13415;SDS011;6779;50.150;8.680;2023-08-30T08:00:58;21.00;;;18.20;;
13415;SDS011;6779;50.150;8.680;2023-08-30T08:03:23;18.80;;;16.80;;
13415;SDS011;6779;50.150;8.680;2023-08-30T08:05:48;20.90;;;16.57;;
13415;SDS011;6779;50.150;8.680;2023-08-30T08:08:14;17.13;;;15.30;;
13415;SDS011;6779;50.150;8.680;2023-08-30T08:10:39;15.73;;;14.17;;
13415;SDS011;6779;50.150;8.680;2023-08-30T08:13:05;16.37;;;14.67;;
13415;SDS011;6779;50.150;8.680;2023-08-30T08:15:30;16.23;;;14.63;;
13415;SDS011;6779;50.150;8.680;2023-08-30T08:17:56;16.50;;;14.53;;
13415;SDS011;6779;50.150;8.680;2023-08-30T08:20:22;16.50;;;15.00;;
13415;SDS011;6779;50.150;8.680;2023-08-30T08:22:47;16.33;;;14.77;;
13415;SDS011;6779;50.150;8.680;2023-08-30T08:25:12;15.60;;;14.00;;
13415;SDS011;6779;50.150;8.680;2023-08-30T08:27:38;14.37;;;12.93;;
13415;SDS011;6779;50.150;8.680;2023-08-30T08:30:03;15.33;;;13.87;;
13415;SDS011;6779;50.150;8.680;2023-08-30T08:32:29;13.47;;;12.17;;
13415;SDS011;6779;50.150;8.680;2023-08-30T08:34:58;13.57;;;12.27;;
13415;SDS011;6779;50.150;8.680;2023-08-30T08:37:23;12.03;;;10.90;;
13415;SDS011;6779;50.150;8.680;2023-08-30T08:39:49;11.77;;;10.60;;
13415;SDS011;6779;50.150;8.680;2023-08-30T08:42:16;13.30;;;10.17;;
13415;SDS011;6779;50.150;8.680;2023-08-30T08:44:42;11.53;;;9.37;;
13415;SDS011;6779;50.150;8.680;2023-08-30T08:47:08;10.37;;;9.37;;
13415;SDS011;6779;50.150;8.680;2023-08-30T08:49:34;11.03;;;9.90;;
13415;SDS011;6779;50.150;8.680;2023-08-30T08:51:59;10.83;;;9.83;;
13415;SDS011;6779;50.150;8.680;2023-08-30T08:54:25;10.43;;;9.30;;
13415;SDS011;6779;50.150;8.680;2023-08-30T08:56:51;10.70;;;9.60;;
13415;SDS011;6779;50.150;8.680;2023-08-30T08:59:16;10.50;;;9.13;;
13415;SDS011;6779;50.150;8.680;2023-08-30T09:01:42;10.40;;;9.33;;
13415;SDS011;6779;50.150;8.680;2023-08-30T09:04:08;11.80;;;9.07;;
13415;SDS011;6779;50.150;8.680;2023-08-30T09:06:35;9.73;;;8.83;;
13415;SDS011;6779;50.150;8.680;2023-08-30T09:09:04;9.57;;;8.60;;
13415;SDS011;6779;50.150;8.680;2023-08-30T09:11:30;11.07;;;9.87;;
13415;SDS011;6779;50.150;8.680;2023-08-30T09:13:55;8.57;;;7.77;;
13415;SDS011;6779;50.150;8.680;2023-08-30T09:16:21;10.70;;;8.40;;
13415;SDS011;6779;50.150;8.680;2023-08-30T09:18:56;10.07;;;7.73;;
13415;SDS011;6779;50.150;8.680;2023-08-30T09:21:30;8.73;;;7.77;;
13415;SDS011;6779;50.150;8.680;2023-08-30T09:23:59;8.77;;;7.87;;
13415;SDS011;6779;50.150;8.680;2023-08-30T09:26:31;7.33;;;6.63;;
13415;SDS011;6779;50.150;8.680;2023-08-30T09:29:04;8.60;;;7.77;;
13415;SDS011;6779;50.150;8.680;2023-08-30T09:31:34;7.40;;;6.70;;
13415;SDS011;6779;50.150;8.680;2023-08-30T09:34:03;7.10;;;6.40;;
13415;SDS011;6779;50.150;8.680;2023-08-30T09:36:41;6.77;;;6.17;;
13415;SDS011;6779;50.150;8.680;2023-08-30T09:39:07;8.20;;;6.77;;
13415;SDS011;6779;50.150;8.680;2023-08-30T09:41:40;7.93;;;6.33;;
13415;SDS011;6779;50.150;8.680;2023-08-30T09:44:07;6.67;;;6.07;;
13415;SDS011;6779;50.150;8.680;2023-08-30T09:46:39;6.70;;;6.07;;
13415;SDS011;6779;50.150;8.680;2023-08-30T09:49:25;7.07;;;5.70;;
13415;SDS011;6779;50.150;8.680;2023-08-30T09:51:52;10.47;;;6.23;;
13415;SDS011;6779;50.150;8.680;2023-08-30T09:54:18;5.83;;;5.33;;
13415;SDS011;6779;50.150;8.680;2023-08-30T09:56:45;6.20;;;5.30;;
13415;SDS011;6779;50.150;8.680;2023-08-30T09:59:11;6.67;;;5.80;;
13415;SDS011;6779;50.150;8.680;2023-08-30T10:01:38;7.00;;;5.97;;
13415;SDS011;6779;50.150;8.680;2023-08-30T10:04:04;5.43;;;4.93;;
13415;SDS011;6779;50.150;8.680;2023-08-30T10:06:32;5.93;;;5.10;;
13415;SDS011;6779;50.150;8.680;2023-08-30T10:08:58;6.10;;;5.40;;
13415;SDS011;6779;50.150;8.680;2023-08-30T10:11:24;5.80;;;5.30;;
13415;SDS011;6779;50.150;8.680;2023-08-30T10:13:50;6.97;;;4.90;;
13415;SDS011;6779;50.150;8.680;2023-08-30T10:16:21;5.30;;;4.57;;
13415;SDS011;6779;50.150;8.680;2023-08-30T10:18:50;5.30;;;4.80;;
13415;SDS011;6779;50.150;8.680;2023-08-30T10:21:19;6.63;;;5.27;;
13415;SDS011;6779;50.150;8.680;2023-08-30T10:23:45;5.97;;;5.47;;
13415;SDS011;6779;50.150;8.680;2023-08-30T10:26:13;5.90;;;5.37;;
13415;SDS011;6779;50.150;8.680;2023-08-30T10:28:39;5.10;;;4.60;;
13415;SDS011;6779;50.150;8.680;2023-08-30T10:31:05;4.93;;;4.40;;
13415;SDS011;6779;50.150;8.680;2023-08-30T10:33:31;5.95;;;5.10;;
13415;SDS011;6779;50.150;8.680;2023-08-30T10:36:02;4.70;;;4.30;;
13415;SDS011;6779;50.150;8.680;2023-08-30T10:38:32;4.50;;;4.13;;
13415;SDS011;6779;50.150;8.680;2023-08-30T10:41:07;5.53;;;4.40;;
13415;SDS011;6779;50.150;8.680;2023-08-30T10:43:34;4.82;;;4.43;;
13415;SDS011;6779;50.150;8.680;2023-08-30T10:46:04;4.20;;;3.80;;
13415;SDS011;6779;50.150;8.680;2023-08-30T10:48:38;6.32;;;4.03;;
13415;SDS011;6779;50.150;8.680;2023-08-30T10:51:06;4.13;;;3.72;;
13415;SDS011;6779;50.150;8.680;2023-08-30T10:53:44;6.07;;;4.30;;
13415;SDS011;6779;50.150;8.680;2023-08-30T10:56:20;3.95;;;3.60;;
13415;SDS011;6779;50.150;8.680;2023-08-30T10:58:52;4.17;;;3.77;;
13415;SDS011;6779;50.150;8.680;2023-08-30T11:01:17;4.73;;;4.20;;
13415;SDS011;6779;50.150;8.680;2023-08-30T11:03:43;3.73;;;3.43;;
13415;SDS011;6779;50.150;8.680;2023-08-30T11:06:12;5.27;;;3.90;;
13415;SDS011;6779;50.150;8.680;2023-08-30T11:08:38;3.97;;;3.60;;
13415;SDS011;6779;50.150;8.680;2023-08-30T11:11:04;3.57;;;3.27;;
13415;SDS011;6779;50.150;8.680;2023-08-30T11:13:30;4.20;;;3.40;;
13415;SDS011;6779;50.150;8.680;2023-08-30T11:16:02;3.63;;;3.30;;
13415;SDS011;6779;50.150;8.680;2023-08-30T11:18:29;4.00;;;3.60;;
13415;SDS011;6779;50.150;8.680;2023-08-30T11:21:01;4.77;;;3.47;;
13415;SDS011;6779;50.150;8.680;2023-08-30T11:23:26;4.03;;;3.67;;
13415;SDS011;6779;50.150;8.680;2023-08-30T11:25:52;4.00;;;3.53;;
13415;SDS011;6779;50.150;8.680;2023-08-30T11:28:24;4.93;;;3.43;;
13415;SDS011;6779;50.150;8.680;2023-08-30T11:30:53;4.23;;;3.40;;
13415;SDS011;6779;50.150;8.680;2023-08-30T11:33:18;4.43;;;3.10;;
13415;SDS011;6779;50.150;8.680;2023-08-30T11:35:44;3.70;;;3.40;;
13415;SDS011;6779;50.150;8.680;2023-08-30T11:38:09;3.90;;;3.57;;
13415;SDS011;6779;50.150;8.680;2023-08-30T11:40:35;4.07;;;3.67;;
13415;SDS011;6779;50.150;8.680;2023-08-30T11:43:01;5.53;;;3.50;;
13415;SDS011;6779;50.150;8.680;2023-08-30T11:45:27;4.97;;;3.13;;
13415;SDS011;6779;50.150;8.680;2023-08-30T11:47:53;4.67;;;3.47;;
13415;SDS011;6779;50.150;8.680;2023-08-30T11:50:18;3.53;;;3.23;;
13415;SDS011;6779;50.150;8.680;2023-08-30T11:52:45;4.33;;;3.93;;
13415;SDS011;6779;50.150;8.680;2023-08-30T11:55:10;4.73;;;4.07;;
13415;SDS011;6779;50.150;8.680;2023-08-30T11:57:37;6.03;;;4.43;;
13415;SDS011;6779;50.150;8.680;2023-08-30T12:00:09;8.03;;;3.53;;
13415;SDS011;6779;50.150;8.680;2023-08-30T12:02:35;3.67;;;3.33;;
13415;SDS011;6779;50.150;8.680;2023-08-30T12:05:01;4.70;;;4.30;;
13415;SDS011;6779;50.150;8.680;2023-08-30T12:07:26;4.80;;;3.50;;
13415;SDS011;6779;50.150;8.680;2023-08-30T12:09:51;3.47;;;3.17;;
13415;SDS011;6779;50.150;8.680;2023-08-30T12:12:17;4.17;;;3.67;;
13415;SDS011;6779;50.150;8.680;2023-08-30T12:14:42;3.63;;;3.20;;
13415;SDS011;6779;50.150;8.680;2023-08-30T12:17:08;4.97;;;3.47;;
13415;SDS011;6779;50.150;8.680;2023-08-30T12:19:36;5.17;;;3.10;;
13415;SDS011;6779;50.150;8.680;2023-08-30T12:22:04;4.97;;;3.13;;
13415;SDS011;6779;50.150;8.680;2023-08-30T12:24:43;4.30;;;3.77;;
13415;SDS011;6779;50.150;8.680;2023-08-30T12:27:08;4.57;;;3.63;;
13415;SDS011;6779;50.150;8.680;2023-08-30T12:29:34;4.30;;;3.77;;
13415;SDS011;6779;50.150;8.680;2023-08-30T12:31:59;5.40;;;3.73;;
13415;SDS011;6779;50.150;8.680;2023-08-30T12:34:24;5.13;;;3.90;;
13415;SDS011;6779;50.150;8.680;2023-08-30T12:36:50;6.00;;;4.93;;
13415;SDS011;6779;50.150;8.680;2023-08-30T12:39:15;5.43;;;4.10;;
13415;SDS011;6779;50.150;8.680;2023-08-30T12:41:41;4.87;;;3.93;;
13415;SDS011;6779;50.150;8.680;2023-08-30T12:44:07;5.83;;;3.73;;
13415;SDS011;6779;50.150;8.680;2023-08-30T12:46:33;3.83;;;3.50;;
13415;SDS011;6779;50.150;8.680;2023-08-30T12:48:58;5.00;;;3.13;;
13415;SDS011;6779;50.150;8.680;2023-08-30T12:51:24;5.33;;;3.77;;
13415;SDS011;6779;50.150;8.680;2023-08-30T12:53:49;5.23;;;3.43;;
13415;SDS011;6779;50.150;8.680;2023-08-30T12:56:14;5.00;;;4.10;;
13415;SDS011;6779;50.150;8.680;2023-08-30T12:58:39;3.77;;;3.23;;
13415;SDS011;6779;50.150;8.680;2023-08-30T13:01:05;4.77;;;3.80;;
13415;SDS011;6779;50.150;8.680;2023-08-30T13:03:30;3.63;;;2.80;;
13415;SDS011;6779;50.150;8.680;2023-08-30T13:05:55;4.57;;;3.10;;
13415;SDS011;6779;50.150;8.680;2023-08-30T13:08:21;6.80;;;3.63;;
13415;SDS011;6779;50.150;8.680;2023-08-30T13:10:46;5.40;;;3.50;;
13415;SDS011;6779;50.150;8.680;2023-08-30T13:13:11;4.37;;;3.13;;
13415;SDS011;6779;50.150;8.680;2023-08-30T13:15:37;4.20;;;3.20;;
13415;SDS011;6779;50.150;8.680;2023-08-30T13:18:02;4.97;;;3.53;;
13415;SDS011;6779;50.150;8.680;2023-08-30T13:20:28;3.83;;;3.10;;
13415;SDS011;6779;50.150;8.680;2023-08-30T13:22:53;4.33;;;3.20;;
13415;SDS011;6779;50.150;8.680;2023-08-30T13:25:18;7.10;;;3.40;;
13415;SDS011;6779;50.150;8.680;2023-08-30T13:27:43;5.47;;;3.40;;
13415;SDS011;6779;50.150;8.680;2023-08-30T13:30:09;4.10;;;3.13;;
13415;SDS011;6779;50.150;8.680;2023-08-30T13:32:35;4.37;;;3.63;;
13415;SDS011;6779;50.150;8.680;2023-08-30T13:35:00;4.27;;;3.33;;
13415;SDS011;6779;50.150;8.680;2023-08-30T13:37:25;5.50;;;3.60;;
13415;SDS011;6779;50.150;8.680;2023-08-30T13:39:54;4.03;;;3.60;;
13415;SDS011;6779;50.150;8.680;2023-08-30T13:42:19;6.20;;;4.10;;
13415;SDS011;6779;50.150;8.680;2023-08-30T13:44:45;4.53;;;3.63;;
13415;SDS011;6779;50.150;8.680;2023-08-30T13:47:11;4.33;;;3.77;;
13415;SDS011;6779;50.150;8.680;2023-08-30T13:49:36;5.97;;;3.97;;
13415;SDS011;6779;50.150;8.680;2023-08-30T13:52:02;6.23;;;4.80;;
13415;SDS011;6779;50.150;8.680;2023-08-30T13:54:28;7.37;;;4.07;;
13415;SDS011;6779;50.150;8.680;2023-08-30T13:56:56;7.93;;;3.97;;
13415;SDS011;6779;50.150;8.680;2023-08-30T13:59:22;5.63;;;4.17;;
13415;SDS011;6779;50.150;8.680;2023-08-30T14:01:47;4.40;;;3.73;;
13415;SDS011;6779;50.150;8.680;2023-08-30T14:04:12;6.27;;;4.50;;
13415;SDS011;6779;50.150;8.680;2023-08-30T14:06:37;4.20;;;3.80;;
13415;SDS011;6779;50.150;8.680;2023-08-30T14:09:03;5.27;;;3.93;;
13415;SDS011;6779;50.150;8.680;2023-08-30T14:11:30;7.10;;;3.60;;
13415;SDS011;6779;50.150;8.680;2023-08-30T14:13:55;4.83;;;4.20;;
13415;SDS011;6779;50.150;8.680;2023-08-30T14:16:21;5.97;;;4.33;;
13415;SDS011;6779;50.150;8.680;2023-08-30T14:18:46;4.40;;;3.73;;
13415;SDS011;6779;50.150;8.680;2023-08-30T14:21:11;7.57;;;4.20;;
13415;SDS011;6779;50.150;8.680;2023-08-30T14:23:38;5.10;;;4.10;;
13415;SDS011;6779;50.150;8.680;2023-08-30T14:26:04;6.00;;;4.27;;
13415;SDS011;6779;50.150;8.680;2023-08-30T14:28:37;6.47;;;4.40;;
13415;SDS011;6779;50.150;8.680;2023-08-30T14:31:06;4.87;;;4.47;;
13415;SDS011;6779;50.150;8.680;2023-08-30T14:33:31;6.30;;;4.30;;
13415;SDS011;6779;50.150;8.680;2023-08-30T14:35:57;5.80;;;4.33;;
13415;SDS011;6779;50.150;8.680;2023-08-30T14:38:22;6.60;;;4.40;;
13415;SDS011;6779;50.150;8.680;2023-08-30T14:40:58;6.33;;;4.47;;
13415;SDS011;6779;50.150;8.680;2023-08-30T14:43:24;5.93;;;4.10;;
13415;SDS011;6779;50.150;8.680;2023-08-30T14:45:49;4.67;;;4.17;;
13415;SDS011;6779;50.150;8.680;2023-08-30T14:48:14;4.53;;;4.10;;
13415;SDS011;6779;50.150;8.680;2023-08-30T14:50:40;5.30;;;4.30;;
13415;SDS011;6779;50.150;8.680;2023-08-30T14:53:05;4.70;;;3.80;;